Time;durP1;ratioP1;P1;durP2;ratioP2;P2;SDS_P1;SDS_P2;PMS_P1;PMS_P2;Temp;Humidity;BMP_temperature;BMP_pressure;BME280_temperature;BME280_humidity;BME280_pressure;Samples;Min_cycle;Max_cycle;Signal;HPM_P1;HPM_P2
2023/11/09 00:01:53;;;;;;;5.75;1.42;;;;;;;6.07;76.09;98596.31;5055839;28;20040;-42
2023/11/09 00:04:20;;;;;;;5.18;1.45;;;;;;;6.07;75.43;98606.59;5061706;28;20056;-43
2023/11/09 00:06:47;;;;;;;10.38;1.92;;;;;;;6.06;75.66;98609.16;5062187;28;20049;-42
2023/11/09 00:09:13;;;;;;;12.50;1.30;;;;;;;6.04;75.41;98601.47;5067639;28;20048;-42
2023/11/09 00:11:40;;;;;;;14.25;2.08;;;;;;;6.04;74.53;98596.31;5065130;28;20048;-46
2023/11/09 00:14:15;;;;;;;7.07;1.10;;;;;;;6.03;76.11;98584.31;5063728;28;20110;-47
2023/11/09 00:16:46;;;;;;;4.82;1.67;;;;;;;6.01;75.70;98581.75;5062664;28;20051;-43
2023/11/09 00:19:13;;;;;;;8.20;1.88;;;;;;;6.00;75.28;98579.19;5068029;28;20098;-46
2023/11/09 00:21:40;;;;;;;8.32;1.58;;;;;;;6.00;76.29;98579.19;5066929;28;20055;-41
2023/11/09 00:24:10;;;;;;;5.20;1.85;;;;;;;6.00;75.14;98571.47;5062863;28;20052;-52
2023/11/09 00:26:38;;;;;;;7.47;0.90;;;;;;;6.01;75.69;98586.06;5064985;28;20044;-47
2023/11/09 00:29:05;;;;;;;4.72;2.45;;;;;;;6.00;76.00;98577.47;5068150;28;20394;-46
2023/11/09 00:31:32;;;;;;;9.75;2.10;;;;;;;6.01;75.11;98580.91;5066689;28;20059;-42
2023/11/09 00:33:58;;;;;;;6.40;1.25;;;;;;;6.01;75.42;98581.75;5065845;28;20047;-42
2023/11/09 00:36:26;;;;;;;7.90;1.90;;;;;;;6.03;76.25;98568.91;5065281;28;20041;-48
2023/11/09 00:38:52;;;;;;;6.60;1.52;;;;;;;6.04;75.28;98575.75;5058243;28;20049;-44
2023/11/09 00:41:20;;;;;;;4.97;1.23;;;;;;;6.08;75.53;98574.88;5068111;28;20047;-41
2023/11/09 00:43:47;;;;;;;6.82;1.17;;;;;;;6.09;75.95;98568.88;5060709;28;20056;-43
2023/11/09 00:46:13;;;;;;;12.90;1.20;;;;;;;6.13;75.38;98570.56;5045810;28;20052;-45
2023/11/09 00:48:40;;;;;;;8.73;2.95;;;;;;;6.16;74.76;98570.53;5065062;28;20441;-43
2023/11/09 00:51:07;;;;;;;8.18;1.77;;;;;;;6.22;75.66;98563.63;5062424;28;20160;-48
2023/11/09 00:53:35;;;;;;;17.40;2.22;;;;;;;6.25;75.88;98553.31;5059419;28;20057;-44
2023/11/09 00:56:01;;;;;;;10.57;1.48;;;;;;;6.28;75.77;98563.56;5061040;28;20044;-50
2023/11/09 00:58:28;;;;;;;11.55;1.85;;;;;;;6.31;75.92;98553.25;5068830;28;20052;-42
2023/11/09 01:00:55;;;;;;;10.30;1.60;;;;;;;6.33;74.79;98550.66;5068295;28;20067;-42
2023/11/09 01:03:22;;;;;;;7.93;1.13;;;;;;;6.34;75.15;98545.50;5066592;28;20048;-41
2023/11/09 01:05:49;;;;;;;7.25;1.33;;;;;;;6.37;76.26;98548.06;5067299;28;20056;-45
2023/11/09 01:08:16;;;;;;;11.52;1.23;;;;;;;6.38;76.47;98542.03;5065825;28;20583;-39
2023/11/09 01:10:43;;;;;;;11.98;1.20;;;;;;;6.40;75.50;98537.75;5062008;28;20053;-44
2023/11/09 01:13:10;;;;;;;2.63;1.50;;;;;;;6.39;76.23;98533.44;5066696;28;20044;-49
2023/11/09 01:15:37;;;;;;;8.63;1.27;;;;;;;6.42;76.53;98540.31;5066248;28;20771;-42
2023/11/09 01:18:07;;;;;;;4.65;0.98;;;;;;;6.43;76.16;98527.41;5062170;28;20052;-47
2023/11/09 01:20:35;;;;;;;8.18;1.33;;;;;;;6.43;76.28;98529.97;5057502;28;20052;-47
2023/11/09 01:23:04;;;;;;;12.20;1.40;;;;;;;6.46;75.30;98526.53;5059928;28;20044;-52
2023/11/09 01:25:31;;;;;;;3.45;0.93;;;;;;;6.47;75.38;98527.38;5059329;28;20072;-48
2023/11/09 01:27:59;;;;;;;7.50;1.23;;;;;;;6.48;76.69;98526.53;5064688;28;20068;-46
2023/11/09 01:30:26;;;;;;;5.00;1.27;;;;;;;6.49;75.56;98525.66;5045021;28;20041;-45
2023/11/09 01:32:53;;;;;;;7.55;1.55;;;;;;;6.49;76.09;98507.66;5038633;28;20114;-40
2023/11/09 01:35:20;;;;;;;7.65;1.90;;;;;;;6.48;75.86;98505.97;5041699;28;20055;-46
2023/11/09 01:37:46;;;;;;;10.95;1.80;;;;;;;6.50;75.39;98509.34;5041965;28;20478;-50
2023/11/09 01:40:13;;;;;;;5.43;1.48;;;;;;;6.50;76.13;98499.06;5043295;28;20110;-46
2023/11/09 01:42:42;;;;;;;9.90;1.52;;;;;;;6.51;75.82;98503.31;5046935;28;20041;-47
2023/11/09 01:45:09;;;;;;;9.15;1.38;;;;;;;6.49;75.42;98503.34;5029939;28;20057;-41
2023/11/09 01:47:36;;;;;;;8.95;2.13;;;;;;;6.50;75.91;98501.63;5044462;28;20045;-49
2023/11/09 01:50:03;;;;;;;8.73;1.83;;;;;;;6.51;75.23;98493.03;5030015;28;20099;-41
2023/11/09 01:52:31;;;;;;;11.25;1.48;;;;;;;6.50;74.81;98496.50;5044776;28;20059;-42
2023/11/09 01:54:58;;;;;;;12.30;1.88;;;;;;;6.50;76.59;98491.34;5068341;28;20045;-46
2023/11/09 01:57:25;;;;;;;7.13;2.17;;;;;;;6.49;75.68;98484.50;5047634;28;20041;-45
2023/11/09 01:59:53;;;;;;;6.68;2.63;;;;;;;6.49;75.89;98485.34;5046466;28;20570;-44
2023/11/09 02:02:20;;;;;;;5.30;1.65;;;;;;;6.48;75.71;98477.66;5050771;28;20059;-41
2023/11/09 02:04:47;;;;;;;5.65;2.03;;;;;;;6.48;75.91;98482.81;5063849;28;20040;-43
2023/11/09 02:07:16;;;;;;;11.25;2.15;;;;;;;6.49;76.56;98480.19;5064686;28;20076;-44
2023/11/09 02:09:43;;;;;;;6.75;1.42;;;;;;;6.51;75.67;98480.19;5065175;28;20064;-44
2023/11/09 02:12:09;;;;;;;9.50;1.23;;;;;;;6.53;75.32;98479.31;5067756;28;20052;-44
2023/11/09 02:14:36;;;;;;;5.35;1.50;;;;;;;6.53;75.57;98476.75;5069561;28;20060;-40
2023/11/09 02:17:03;;;;;;;9.65;1.45;;;;;;;6.53;76.70;98470.72;5067045;28;20489;-45
2023/11/09 02:19:31;;;;;;;8.40;1.30;;;;;;;6.55;76.85;98474.13;5069420;28;20052;-43
2023/11/09 02:21:58;;;;;;;5.78;1.60;;;;;;;6.56;76.59;98473.28;5046798;28;20060;-48
2023/11/09 02:24:26;;;;;;;7.55;2.28;;;;;;;6.55;76.37;98468.97;5056559;28;20056;-46
2023/11/09 02:26:55;;;;;;;8.07;1.00;;;;;;;6.56;76.65;98465.56;5058421;28;20098;-45
2023/11/09 02:29:22;;;;;;;12.50;1.98;;;;;;;6.59;76.95;98465.53;5061318;28;21292;-41
2023/11/09 02:31:48;;;;;;;6.55;1.33;;;;;;;6.61;75.66;98462.91;5047237;28;20052;-48
2023/11/09 02:34:21;;;;;;;19.60;2.00;;;;;;;6.63;77.17;98456.03;5047362;28;20045;-45
2023/11/09 02:36:49;;;;;;;10.02;1.83;;;;;;;6.61;77.31;98453.47;5047516;28;20069;-48
2023/11/09 02:39:16;;;;;;;7.45;2.70;;;;;;;6.61;77.00;98448.34;5055874;28;20395;-46
2023/11/09 02:41:45;;;;;;;4.72;1.40;;;;;;;6.62;76.08;98439.75;5052453;28;20078;-47
2023/11/09 02:44:11;;;;;;;4.32;1.48;;;;;;;6.62;77.19;98429.44;5048652;28;20048;-43
2023/11/09 02:46:38;;;;;;;10.75;1.85;;;;;;;6.64;76.06;98432.00;5047455;28;20103;-39
2023/11/09 02:49:04;;;;;;;9.13;1.25;;;;;;;6.64;76.57;98427.72;5048009;28;20040;-42
2023/11/09 02:51:31;;;;;;;5.57;1.65;;;;;;;6.64;77.47;98426.88;5050613;28;20529;-42
2023/11/09 02:53:58;;;;;;;8.68;1.63;;;;;;;6.66;77.00;98420.81;5048023;28;20055;-44
2023/11/09 02:56:25;;;;;;;8.75;1.98;;;;;;;6.65;76.90;98416.56;5044429;28;20041;-44
2023/11/09 02:58:52;;;;;;;6.45;1.65;;;;;;;6.66;76.83;98405.38;5043491;28;20452;-42
2023/11/09 03:01:19;;;;;;;6.85;1.25;;;;;;;6.67;77.89;98407.09;5045537;28;20079;-42
2023/11/09 03:03:46;;;;;;;6.40;1.40;;;;;;;6.69;77.29;98402.78;5050009;28;20056;-41
2023/11/09 03:06:14;;;;;;;5.45;1.42;;;;;;;6.70;76.42;98398.50;5049538;28;20255;-44
2023/11/09 03:08:41;;;;;;;10.25;1.80;;;;;;;6.68;76.32;98390.78;5050012;28;20126;-41
2023/11/09 03:11:09;;;;;;;10.77;1.80;;;;;;;6.68;76.12;98390.78;5049586;28;20045;-43
2023/11/09 03:13:39;;;;;;;10.70;1.70;;;;;;;6.68;76.89;98390.78;5042063;28;20045;-44
2023/11/09 03:16:08;;;;;;;5.15;0.70;;;;;;;6.67;77.14;98391.66;5047526;28;20048;-42
2023/11/09 03:18:36;;;;;;;12.30;1.58;;;;;;;6.68;76.66;98383.06;5045266;28;20135;-41
2023/11/09 03:21:03;;;;;;;16.25;1.55;;;;;;;6.70;77.91;98380.47;5038615;28;20045;-42
2023/11/09 03:23:29;;;;;;;4.53;1.00;;;;;;;6.72;77.20;98380.47;5039273;28;20134;-43
2023/11/09 03:25:56;;;;;;;9.98;1.67;;;;;;;6.72;76.52;98372.75;5031779;28;20491;-48
2023/11/09 03:28:23;;;;;;;7.03;1.45;;;;;;;6.74;76.77;98365.84;5041642;28;20207;-42
2023/11/09 03:30:49;;;;;;;9.20;2.03;;;;;;;6.75;76.44;98370.13;5047904;28;20151;-42
2023/11/09 03:33:16;;;;;;;9.40;1.45;;;;;;;6.75;77.46;98367.56;5049259;28;20719;-45
2023/11/09 03:35:43;;;;;;;8.27;1.80;;;;;;;6.76;77.46;98364.09;5050031;28;20150;-48
2023/11/09 03:38:10;;;;;;;7.82;1.73;;;;;;;6.79;77.64;98358.91;5039365;28;20536;-47
2023/11/09 03:40:37;;;;;;;9.38;1.75;;;;;;;6.79;76.27;98366.63;5045536;28;20433;-39
2023/11/09 03:43:03;;;;;;;9.10;1.45;;;;;;;6.80;77.08;98365.75;5045540;28;20060;-44
2023/11/09 03:45:31;;;;;;;8.60;0.70;;;;;;;6.81;77.80;98367.44;5047368;28;20080;-44
2023/11/09 03:47:58;;;;;;;7.40;1.80;;;;;;;6.80;77.70;98366.59;5041568;28;20564;-41
2023/11/09 03:50:25;;;;;;;9.20;1.20;;;;;;;6.83;77.27;98368.28;5049773;28;20041;-40
2023/11/09 03:52:51;;;;;;;9.02;1.50;;;;;;;6.80;76.57;98366.59;5049875;28;20049;-46
2023/11/09 03:55:18;;;;;;;12.52;1.98;;;;;;;6.80;77.78;98358.03;5049393;28;20052;-49
2023/11/09 03:57:45;;;;;;;9.88;1.83;;;;;;;6.79;76.50;98353.78;5049268;28;20042;-46
2023/11/09 04:00:12;;;;;;;13.32;1.30;;;;;;;6.78;76.19;98354.63;5043399;28;20088;-47
2023/11/09 04:02:41;;;;;;;7.47;0.95;;;;;;;6.76;77.49;98351.25;5050948;28;20130;-41
2023/11/09 04:05:09;;;;;;;6.75;1.13;;;;;;;6.75;76.83;98347.81;5048019;28;20049;-42
2023/11/09 04:07:41;;;;;;;4.20;1.10;;;;;;;6.75;77.59;98341.81;5047968;28;20045;-47
2023/11/09 04:10:09;;;;;;;8.98;1.33;;;;;;;6.74;78.37;98334.97;5065891;28;20044;-47
2023/11/09 04:12:36;;;;;;;4.45;0.85;;;;;;;6.75;76.54;98331.53;5046514;28;20045;-41
2023/11/09 04:15:04;;;;;;;3.45;1.55;;;;;;;6.77;76.55;98329.78;5041834;28;20049;-47
2023/11/09 04:17:32;;;;;;;7.75;1.20;;;;;;;6.78;78.14;98326.31;5048487;28;20490;-43
2023/11/09 04:19:59;;;;;;;2.75;1.35;;;;;;;6.77;76.93;98322.06;5049002;28;20116;-41
2023/11/09 04:22:26;;;;;;;7.22;1.50;;;;;;;6.79;77.17;98313.44;5048675;28;20062;-44
2023/11/09 04:24:53;;;;;;;3.25;1.75;;;;;;;6.80;78.30;98316.88;5047067;28;20080;-45
2023/11/09 04:27:21;;;;;;;4.85;1.67;;;;;;;6.80;77.46;98319.44;5040809;28;20572;-44
2023/11/09 04:29:49;;;;;;;6.90;1.95;;;;;;;6.82;78.24;98315.97;5042644;28;20048;-42
2023/11/09 04:32:18;;;;;;;4.47;1.27;;;;;;;6.82;77.39;98317.69;5049451;28;20060;-50
2023/11/09 04:34:46;;;;;;;7.53;1.80;;;;;;;6.83;76.90;98311.69;5047531;28;20044;-42
2023/11/09 04:37:13;;;;;;;5.32;1.13;;;;;;;6.80;77.49;98307.41;5060522;28;20052;-46
2023/11/09 04:39:42;;;;;;;9.35;0.90;;;;;;;6.78;76.96;98311.75;5047168;28;20049;-42
2023/11/09 04:42:11;;;;;;;4.40;1.55;;;;;;;6.73;77.94;98302.38;5045860;28;20461;-50
2023/11/09 04:44:39;;;;;;;4.13;1.15;;;;;;;6.69;76.93;98301.59;5054667;28;20052;-44
2023/11/09 04:47:10;;;;;;;7.97;1.38;;;;;;;6.67;78.16;98293.91;5057410;28;20053;-43
2023/11/09 04:49:44;;;;;;;8.82;1.23;;;;;;;6.65;78.14;98290.50;5053376;28;20048;-49
2023/11/09 04:52:15;;;;;;;7.32;1.55;;;;;;;6.63;78.46;98297.41;5051757;28;20061;-47
2023/11/09 04:54:45;;;;;;;6.53;2.17;;;;;;;6.62;78.14;98295.66;5050287;28;20466;-39
2023/11/09 05:08:19;;;;;;;6.50;1.17;;;;;;;6.45;77.93;98270.19;5035791;28;20072;-42
2023/11/09 05:10:46;;;;;;;5.68;1.25;;;;;;;6.40;77.44;98272.84;5046049;28;20501;-42
2023/11/09 05:13:14;;;;;;;6.32;1.45;;;;;;;6.39;77.04;98262.59;5043010;28;20055;-46
2023/11/09 05:15:41;;;;;;;6.30;0.93;;;;;;;6.34;78.17;98265.22;5059452;28;20131;-42
2023/11/09 05:18:08;;;;;;;7.38;1.15;;;;;;;6.33;78.57;98263.53;5059108;28;20102;-42
2023/11/09 05:20:35;;;;;;;12.63;1.17;;;;;;;6.29;78.57;98267.00;5062131;28;20080;-44
2023/11/09 05:23:01;;;;;;;7.53;1.42;;;;;;;6.25;78.51;98261.03;5065144;28;20059;-48
2023/11/09 05:25:28;;;;;;;5.93;1.10;;;;;;;6.23;77.12;98262.81;5064118;28;20060;-46
2023/11/09 05:27:55;;;;;;;5.18;0.65;;;;;;;6.17;78.57;98262.88;5067059;28;20486;-40
2023/11/09 05:30:22;;;;;;;3.42;0.60;;;;;;;6.17;78.25;98257.72;5059799;28;20117;-39
2023/11/09 05:32:48;;;;;;;6.50;0.82;;;;;;;6.16;77.29;98256.03;5061103;28;20516;-43
2023/11/09 05:35:17;;;;;;;2.75;1.85;;;;;;;6.15;77.48;98255.19;5066524;28;20052;-43
2023/11/09 05:37:43;;;;;;;4.43;0.90;;;;;;;6.16;77.61;98256.03;5067245;28;20047;-44
2023/11/09 05:40:10;;;;;;;2.72;1.10;;;;;;;6.17;78.89;98252.59;5066755;28;20052;-43
2023/11/09 05:42:41;;;;;;;3.88;1.48;;;;;;;6.15;78.13;98247.47;5066911;28;20040;-42
2023/11/09 05:45:09;;;;;;;5.78;1.75;;;;;;;6.17;77.82;98248.31;5047453;28;20044;-49
2023/11/09 05:47:35;;;;;;;4.38;1.00;;;;;;;6.16;78.77;98241.47;5047022;28;21509;-41
2023/11/09 05:50:05;;;;;;;7.53;1.42;;;;;;;6.16;79.02;98236.34;5050982;28;20045;-45
2023/11/09 05:52:31;;;;;;;7.70;1.58;;;;;;;6.16;77.31;98236.34;5051551;28;20052;-46
2023/11/09 05:54:59;;;;;;;3.30;1.02;;;;;;;6.16;78.54;98235.47;5070623;28;20053;-45
2023/11/09 05:57:26;;;;;;;9.90;0.80;;;;;;;6.16;78.95;98235.47;5047736;28;20065;-45
2023/11/09 05:59:53;;;;;;;3.00;0.93;;;;;;;6.15;78.52;98232.03;5049643;28;20051;-47
2023/11/09 06:02:19;;;;;;;8.75;1.27;;;;;;;6.16;77.27;98236.34;5050766;28;20045;-44
2023/11/09 06:04:47;;;;;;;6.97;1.80;;;;;;;6.17;78.65;98238.03;5060842;28;20400;-45
2023/11/09 06:07:14;;;;;;;3.70;0.98;;;;;;;6.18;77.35;98238.88;5048750;28;20045;-41
2023/11/09 06:09:43;;;;;;;4.15;1.35;;;;;;;6.21;77.58;98227.72;5044592;28;20056;-44
2023/11/09 06:12:10;;;;;;;4.95;1.30;;;;;;;6.22;78.09;98230.25;5044674;28;20049;-39
2023/11/09 06:14:37;;;;;;;6.72;0.88;;;;;;;6.23;79.21;98226.81;5038548;28;20056;-45
2023/11/09 06:17:03;;;;;;;2.25;0.52;;;;;;;6.24;79.00;98225.94;5049144;28;20056;-49
2023/11/09 06:19:31;;;;;;;9.00;1.35;;;;;;;6.28;78.64;98224.16;5046948;28;20545;-45
2023/11/09 06:21:57;;;;;;;4.40;1.00;;;;;;;6.32;78.41;98212.97;5066877;28;20060;-43
2023/11/09 06:24:24;;;;;;;3.30;1.77;;;;;;;6.33;77.95;98199.25;5053143;28;20037;-43
2023/11/09 06:26:52;;;;;;;3.22;2.35;;;;;;;6.36;78.37;98212.06;5049383;28;20059;-45
2023/11/09 06:29:19;;;;;;;3.13;0.80;;;;;;;6.38;78.62;98205.16;5047746;28;20119;-47
2023/11/09 06:31:45;;;;;;;13.20;2.03;;;;;;;6.39;78.56;98209.41;5043487;28;20057;-47
2023/11/09 06:34:15;;;;;;;9.45;1.05;;;;;;;6.40;78.46;98213.72;5050161;28;20095;-43
2023/11/09 06:36:43;;;;;;;2.60;1.05;;;;;;;6.42;79.29;98222.22;5056541;28;20051;-45
2023/11/09 06:39:22;;;;;;;4.30;1.10;;;;;;;6.40;78.18;98218.00;5052943;28;20041;-43
2023/11/09 06:41:49;;;;;;;1.27;0.75;;;;;;;6.37;79.77;98216.31;5049638;28;20052;-43
2023/11/09 06:44:17;;;;;;;3.83;1.08;;;;;;;6.39;79.06;98222.28;5050685;28;20072;-43
2023/11/09 06:46:44;;;;;;;5.55;1.52;;;;;;;6.36;79.16;98214.63;5044512;28;21527;-41
2023/11/09 06:49:11;;;;;;;6.57;1.58;;;;;;;6.34;78.45;98216.34;5050422;28;20037;-42
2023/11/09 06:51:38;;;;;;;6.53;1.08;;;;;;;6.30;77.89;98212.13;5049820;28;20051;-43
2023/11/09 06:54:05;;;;;;;5.85;1.13;;;;;;;6.28;77.84;98211.28;5047566;28;20516;-41
2023/11/09 06:56:34;;;;;;;1.90;0.65;;;;;;;6.24;78.58;98217.34;5057236;28;20041;-45
2023/11/09 06:59:03;;;;;;;3.50;1.17;;;;;;;6.20;79.89;98213.13;5045785;28;20147;-42
2023/11/09 07:01:31;;;;;;;1.25;1.05;;;;;;;6.19;79.31;98208.88;5046786;28;20044;-43
2023/11/09 07:03:58;;;;;;;11.07;0.90;;;;;;;6.19;78.86;98196.88;5070384;28;20056;-42
2023/11/09 07:06:25;;;;;;;5.20;1.13;;;;;;;6.20;79.62;98200.28;5069283;28;20079;-47
2023/11/09 07:08:52;;;;;;;7.57;1.35;;;;;;;6.20;78.38;98206.28;5067895;28;20402;-48
2023/11/09 07:11:18;;;;;;;6.15;1.08;;;;;;;6.22;79.72;98199.41;5069523;28;20041;-39
2023/11/09 07:13:45;;;;;;;6.00;1.60;;;;;;;6.26;78.72;98200.19;5065060;28;20044;-48
2023/11/09 07:16:12;;;;;;;6.78;1.08;;;;;;;6.25;78.61;98188.22;5067622;28;20067;-47
2023/11/09 07:18:39;;;;;;;2.13;0.77;;;;;;;6.28;78.84;98188.16;5069928;28;20493;-52
2023/11/09 07:21:07;;;;;;;3.50;1.15;;;;;;;6.27;79.12;98177.03;5061573;28;20084;-44
2023/11/09 07:23:38;;;;;;;3.72;1.48;;;;;;;6.27;79.55;98177.03;5053524;28;20091;-41
2023/11/09 07:26:05;;;;;;;2.35;0.90;;;;;;;6.30;79.16;98186.44;5041539;28;20052;-45
2023/11/09 07:28:32;;;;;;;8.48;1.83;;;;;;;6.32;78.52;98182.13;5053572;28;20037;-43
2023/11/09 07:31:00;;;;;;;8.38;1.17;;;;;;;6.36;79.64;98181.19;5069351;28;20072;-42
2023/11/09 07:33:28;;;;;;;5.95;1.25;;;;;;;6.39;80.20;98181.13;5046885;28;20048;-44
2023/11/09 07:35:56;;;;;;;10.15;1.08;;;;;;;6.45;80.06;98185.31;5047065;28;20136;-44
2023/11/09 07:38:23;;;;;;;10.10;1.35;;;;;;;6.49;78.91;98175.84;5041220;28;20049;-50
2023/11/09 07:40:49;;;;;;;12.32;3.00;;;;;;;6.53;79.22;98183.50;5045961;28;20461;-48
2023/11/09 07:43:17;;;;;;;2.92;0.95;;;;;;;6.56;78.51;98167.16;5044836;28;20054;-44
2023/11/09 07:45:45;;;;;;;4.10;1.00;;;;;;;6.57;79.71;98171.44;5045703;28;20132;-41
2023/11/09 07:48:12;;;;;;;6.82;1.40;;;;;;;6.60;79.09;98171.38;5045067;28;20522;-44
2023/11/09 07:50:41;;;;;;;6.97;1.58;;;;;;;6.63;78.87;98168.75;5046352;28;20057;-43
2023/11/09 07:53:08;;;;;;;4.85;1.27;;;;;;;6.66;79.03;98170.44;5042060;28;20041;-41
2023/11/09 07:55:35;;;;;;;4.53;1.08;;;;;;;6.69;78.52;98173.78;5043737;28;20464;-42
2023/11/09 07:58:03;;;;;;;8.48;0.80;;;;;;;6.73;78.47;98174.59;5048006;28;20053;-40
2023/11/09 08:00:30;;;;;;;5.80;1.42;;;;;;;6.75;79.61;98177.16;5048160;28;20509;-42
2023/11/09 08:02:58;;;;;;;6.60;0.85;;;;;;;6.79;79.78;98181.38;5046979;28;20547;-40
2023/11/09 08:05:25;;;;;;;5.45;0.88;;;;;;;6.82;78.74;98174.44;5043179;28;20076;-45
2023/11/09 08:07:53;;;;;;;5.00;1.40;;;;;;;6.85;78.81;98170.94;5051026;28;20059;-43
2023/11/09 08:10:21;;;;;;;8.13;1.40;;;;;;;6.88;79.55;98167.47;5045574;28;20048;-43
2023/11/09 08:12:48;;;;;;;7.03;1.15;;;;;;;6.88;79.82;98165.75;5042750;28;20045;-45
2023/11/09 08:15:18;;;;;;;2.78;1.02;;;;;;;6.90;79.38;98166.59;5044518;28;20136;-38
2023/11/09 08:17:47;;;;;;;6.25;0.93;;;;;;;6.92;79.09;98154.53;5059493;28;20036;-42
2023/11/09 08:20:14;;;;;;;3.05;1.25;;;;;;;6.94;79.98;98152.78;5058378;28;20127;-44
2023/11/09 08:22:44;;;;;;;4.85;1.58;;;;;;;7.11;78.98;98149.03;5052195;28;20049;-43
2023/11/09 08:25:13;;;;;;;6.82;1.20;;;;;;;7.66;79.00;98161.66;5048752;28;20102;-43
2023/11/09 08:27:41;;;;;;;4.85;0.77;;;;;;;8.23;79.25;98161.28;5064591;28;20048;-39
2023/11/09 08:30:09;;;;;;;7.80;1.83;;;;;;;8.61;77.75;98161.25;5067475;28;20041;-47
2023/11/09 08:32:37;;;;;;;4.80;0.88;;;;;;;8.91;77.71;98153.59;5063078;28;20051;-45
2023/11/09 08:35:10;;;;;;;6.07;0.90;;;;;;;9.51;77.13;98158.00;5062591;28;20080;-49
2023/11/09 08:37:38;;;;;;;4.80;1.30;;;;;;;10.25;75.24;98160.13;5067935;28;20052;-47
2023/11/09 08:40:16;;;;;;;3.90;0.70;;;;;;;10.67;73.96;98153.59;5064332;28;20047;-43
2023/11/09 08:42:46;;;;;;;6.85;0.75;;;;;;;10.96;74.16;98160.41;5067267;28;20059;-42
2023/11/09 08:45:13;;;;;;;5.88;0.88;;;;;;;11.32;74.69;98157.44;5064712;28;20132;-48
2023/11/09 08:47:39;;;;;;;9.43;1.80;;;;;;;11.76;73.91;98156.66;5067641;28;20666;-43
2023/11/09 08:50:09;;;;;;;2.67;1.33;;;;;;;12.33;72.85;98158.00;5063858;28;20053;-45
2023/11/09 08:52:40;;;;;;;5.30;0.85;;;;;;;13.10;70.94;98151.31;5041035;28;20056;-42
2023/11/09 08:55:08;;;;;;;5.82;0.90;;;;;;;13.61;70.94;98156.03;5044563;28;20045;-47
2023/11/09 08:57:37;;;;;;;5.40;1.55;;;;;;;13.90;70.17;98157.34;5048181;28;20154;-40
2023/11/09 09:00:06;;;;;;;3.25;1.02;;;;;;;14.31;69.68;98154.53;5047084;28;20127;-47
2023/11/09 09:02:34;;;;;;;4.72;0.75;;;;;;;14.80;67.75;98150.47;5047140;28;20498;-47
2023/11/09 09:05:01;;;;;;;4.93;0.95;;;;;;;15.36;66.90;98158.03;5040957;28;20183;-43
2023/11/09 09:07:28;;;;;;;3.30;0.90;;;;;;;15.76;65.55;98156.78;5047790;28;20106;-44
2023/11/09 09:09:55;;;;;;;2.90;0.77;;;;;;;15.70;64.51;98154.53;5046020;28;20163;-46
2023/11/09 09:12:21;;;;;;;3.38;0.75;;;;;;;15.25;65.03;98144.69;5047702;28;20045;-41
2023/11/09 09:14:51;;;;;;;2.53;0.52;;;;;;;14.58;64.42;98141.09;5047361;28;20055;-41
2023/11/09 09:17:18;;;;;;;1.92;0.88;;;;;;;13.82;64.59;98142.94;5044289;28;20045;-46
2023/11/09 09:19:46;;;;;;;3.45;1.02;;;;;;;13.13;64.74;98144.31;5048247;28;20123;-45
2023/11/09 09:22:13;;;;;;;2.45;0.55;;;;;;;12.61;66.48;98141.28;5049523;28;20055;-41
2023/11/09 09:24:40;;;;;;;1.77;0.70;;;;;;;12.04;66.63;98137.47;5050291;28;20502;-43
2023/11/09 09:27:09;;;;;;;2.75;0.70;;;;;;;11.66;67.40;98125.06;5051735;28;20049;-42
2023/11/09 09:29:35;;;;;;;1.27;0.63;;;;;;;11.24;67.72;98100.69;5051658;28;20062;-42
2023/11/09 09:32:04;;;;;;;1.98;0.82;;;;;;;10.89;68.85;98095.03;5046946;28;20045;-45
2023/11/09 09:34:31;;;;;;;2.45;0.68;;;;;;;10.63;68.73;98092.47;5047932;28;20490;-48
2023/11/09 09:36:58;;;;;;;3.13;0.45;;;;;;;10.36;68.73;98083.84;5070075;28;20071;-47
2023/11/09 09:39:27;;;;;;;2.53;2.42;;;;;;;10.20;69.93;98092.13;5052350;28;20414;-42
2023/11/09 09:41:58;;;;;;;3.00;0.88;;;;;;;10.09;69.84;98081.28;5049491;28;20102;-44
2023/11/09 09:44:26;;;;;;;0.95;0.60;;;;;;;9.96;70.59;98076.50;5048142;28;20041;-50
2023/11/09 09:46:56;;;;;;;1.25;0.38;;;;;;;9.81;70.78;98082.16;5046732;28;20048;-41
2023/11/09 09:49:25;;;;;;;1.00;0.50;;;;;;;9.70;70.79;98078.19;5050197;28;20045;-46
2023/11/09 09:51:55;;;;;;;0.77;0.40;;;;;;;9.64;70.73;98080.97;5050365;28;20068;-44
2023/11/09 09:54:24;;;;;;;1.33;0.45;;;;;;;9.60;71.06;98079.38;5051337;28;20056;-41
2023/11/09 09:56:53;;;;;;;1.08;0.40;;;;;;;9.54;71.48;98085.56;5050888;28;20068;-43
2023/11/09 09:59:22;;;;;;;2.03;0.60;;;;;;;9.52;71.79;98083.03;5051339;28;20075;-42
2023/11/09 10:01:49;;;;;;;1.30;0.45;;;;;;;9.49;72.12;98083.09;5051654;28;20049;-45
2023/11/09 10:04:16;;;;;;;4.80;0.77;;;;;;;9.44;71.49;98074.66;5050848;28;20110;-45
2023/11/09 10:06:45;;;;;;;4.68;1.70;;;;;;;9.39;71.90;98081.69;5050253;28;20049;-45
2023/11/09 10:09:12;;;;;;;2.88;1.00;;;;;;;9.37;72.53;98079.16;5052095;28;20091;-49
2023/11/09 10:11:42;;;;;;;3.15;0.73;;;;;;;9.38;72.25;98086.03;5047790;28;20048;-47
2023/11/09 10:14:11;;;;;;;2.28;0.80;;;;;;;9.74;72.58;98087.56;5050563;28;20055;-45
2023/11/09 10:16:38;;;;;;;1.23;0.70;;;;;;;10.53;71.95;98080.72;5049509;28;20048;-47
2023/11/09 10:19:05;;;;;;;2.67;0.75;;;;;;;11.23;71.09;98091.25;5051456;28;20064;-45
2023/11/09 10:21:33;;;;;;;1.10;0.75;;;;;;;11.67;70.07;98087.00;5050026;28;20049;-51
2023/11/09 10:24:01;;;;;;;1.92;0.80;;;;;;;11.71;69.93;98096.34;5049827;28;20044;-47
2023/11/09 10:26:45;;;;;;;5.40;1.45;;;;;;;11.93;70.08;98095.53;5050592;28;20099;-47
2023/11/09 10:29:19;;;;;;;2.75;0.65;;;;;;;12.23;68.87;98091.78;5044495;28;20048;-49
2023/11/09 10:31:46;;;;;;;1.45;0.75;;;;;;;12.50;69.15;98092.38;5050161;28;20048;-45
2023/11/09 10:34:15;;;;;;;0.90;0.90;;;;;;;12.62;68.23;98095.34;5050070;28;20415;-44
2023/11/09 10:36:44;;;;;;;5.18;1.52;;;;;;;12.72;67.47;98091.47;5049556;28;20052;-45
2023/11/09 10:39:22;;;;;;;1.98;0.40;;;;;;;12.72;67.33;98094.91;5055989;28;20049;-49
2023/11/09 10:41:52;;;;;;;1.48;0.52;;;;;;;12.54;67.14;98093.97;5050404;28;20041;-46
2023/11/09 10:44:28;;;;;;;2.00;0.80;;;;;;;12.40;67.49;98099.69;5049329;28;20126;-45
2023/11/09 10:46:59;;;;;;;1.98;1.02;;;;;;;12.22;67.31;98090.94;5046311;28;20053;-41
2023/11/09 10:49:35;;;;;;;7.50;0.68;;;;;;;12.04;66.35;98088.16;5042756;28;20045;-45
2023/11/09 10:52:05;;;;;;;2.72;0.60;;;;;;;11.99;66.66;98090.06;5048884;28;20044;-46
2023/11/09 10:54:32;;;;;;;1.83;1.08;;;;;;;11.96;67.69;98092.81;5044758;28;20037;-46
2023/11/09 10:57:00;;;;;;;1.30;0.93;;;;;;;11.96;68.23;98085.84;5049046;28;20072;-46
2023/11/09 10:59:29;;;;;;;2.10;1.02;;;;;;;11.74;66.49;98085.88;5047682;28;20098;-45
2023/11/09 11:02:04;;;;;;;1.63;0.90;;;;;;;11.57;66.50;98079.59;5049510;28;20068;-45
2023/11/09 11:04:35;;;;;;;1.98;0.82;;;;;;;11.57;67.39;98069.22;5054351;28;20055;-47
2023/11/09 11:07:06;;;;;;;4.18;0.55;;;;;;;11.63;67.18;98072.47;5070112;28;20071;-46
2023/11/09 11:09:37;;;;;;;2.38;0.68;;;;;;;11.75;67.93;98065.97;5049583;28;20044;-50
2023/11/09 11:12:08;;;;;;;0.88;0.70;;;;;;;11.85;68.14;98066.47;5046353;28;20052;-52
2023/11/09 11:14:40;;;;;;;2.05;0.60;;;;;;;11.98;68.73;98059.84;5047769;28;20490;-49
2023/11/09 11:27:58;;;;;;;3.28;2.63;;;;;;;11.77;67.30;98028.69;5055887;27;20384;-44
2023/11/09 11:33:07;;;;;;;3.65;0.82;;;;;;;11.70;67.17;98022.06;5045921;27;20816;-49
2023/11/09 11:41:02;;;;;;;4.25;1.30;;;;;;;11.45;66.84;98017.84;5054800;27;20406;-40
2023/11/09 11:43:39;;;;;;;1.40;0.40;;;;;;;11.42;66.75;98003.25;5022405;28;20042;-42
2023/11/09 11:46:08;;;;;;;1.73;0.50;;;;;;;11.35;66.37;98006.16;5057783;28;20483;-46
2023/11/09 11:48:36;;;;;;;3.25;0.50;;;;;;;11.31;67.73;98001.09;5017412;28;20076;-50
2023/11/09 11:51:06;;;;;;;2.95;0.70;;;;;;;11.28;67.91;97993.41;5016749;28;20415;-42
2023/11/09 11:53:34;;;;;;;2.33;0.50;;;;;;;11.29;67.30;97981.31;5023585;28;20046;-44
2023/11/09 11:58:47;;;;;;;2.30;0.95;;;;;;;11.39;66.94;97966.25;5058240;27;20387;-45
2023/11/09 12:01:20;;;;;;;2.88;0.70;;;;;;;11.46;66.50;97967.69;5018849;28;20042;-50
2023/11/09 12:04:02;;;;;;;2.40;0.70;;;;;;;11.37;67.10;97962.88;5010067;28;20050;-40
2023/11/09 12:06:34;;;;;;;1.08;0.90;;;;;;;11.29;67.19;97961.41;4996304;28;20066;-48
2023/11/09 12:09:07;;;;;;;3.03;1.50;;;;;;;11.29;66.72;97966.59;5028988;28;20047;-48
2023/11/09 12:11:45;;;;;;;2.38;0.75;;;;;;;11.29;67.23;97971.78;4990335;28;20569;-47
2023/11/09 12:14:15;;;;;;;1.73;0.52;;;;;;;11.29;66.92;97971.78;5001062;28;20523;-45
2023/11/09 12:16:42;;;;;;;5.93;0.75;;;;;;;11.26;65.93;97971.91;4988617;28;20145;-46